createdAt,value
2017-09-22T00:00:51.855Z,10.70
2017-09-22T00:03:22.794Z,12.13
2017-09-22T00:05:50.296Z,10.30
2017-09-22T00:08:18.930Z,9.52
2017-09-22T00:10:46.423Z,9.40
2017-09-22T00:13:13.916Z,7.80
2017-09-22T00:15:43.150Z,11.03
2017-09-22T00:18:10.646Z,8.30
2017-09-22T00:20:38.619Z,9.30
2017-09-22T00:23:06.454Z,9.23
2017-09-22T00:25:33.964Z,10.00
2017-09-22T00:28:01.898Z,8.60
2017-09-22T00:30:29.400Z,8.13
2017-09-22T00:32:56.899Z,8.13
2017-09-22T00:35:24.752Z,6.67
2017-09-22T00:37:52.352Z,7.10
2017-09-22T00:40:19.895Z,5.57
2017-09-22T00:42:47.392Z,7.33
2017-09-22T00:45:16.700Z,8.23
2017-09-22T00:47:45.893Z,7.53
2017-09-22T00:50:13.685Z,6.60
2017-09-22T00:52:41.732Z,7.18
2017-09-22T00:55:09.234Z,7.30
2017-09-22T00:57:36.819Z,7.85
2017-09-22T01:00:05.268Z,9.13
2017-09-22T01:02:37.084Z,8.93
2017-09-22T01:05:05.560Z,9.15
2017-09-22T01:07:33.878Z,9.13
2017-09-22T01:10:01.408Z,8.80
2017-09-22T01:12:30.932Z,8.20
2017-09-22T01:14:58.478Z,9.43
2017-09-22T01:17:29.496Z,8.67
2017-09-22T01:19:57.963Z,8.55
2017-09-22T01:22:25.508Z,10.17
2017-09-22T01:24:53.017Z,9.33
2017-09-22T01:27:20.868Z,9.13
2017-09-22T01:29:48.866Z,9.50
2017-09-22T01:32:16.444Z,8.73
2017-09-22T01:34:44.753Z,7.97
2017-09-22T01:37:12.298Z,8.40
2017-09-22T01:39:40.028Z,8.15
2017-09-22T01:42:07.598Z,9.97
2017-09-22T01:44:35.151Z,9.37
2017-09-22T01:47:03.343Z,9.13
2017-09-22T01:49:30.883Z,8.70
2017-09-22T01:51:58.567Z,8.57
2017-09-22T01:54:26.115Z,9.05
2017-09-22T01:56:53.711Z,8.37
2017-09-22T01:59:21.215Z,9.93
2017-09-22T02:01:48.974Z,9.80
2017-09-22T02:04:17.260Z,9.05
2017-09-22T02:06:44.802Z,9.70
2017-09-22T02:09:12.306Z,9.48
2017-09-22T02:11:39.847Z,9.38
2017-09-22T02:14:07.367Z,7.90
2017-09-22T02:16:34.903Z,9.80
2017-09-22T02:19:02.407Z,6.70
2017-09-22T02:21:30.731Z,6.87
2017-09-22T02:23:58.227Z,6.43
2017-09-22T02:26:25.760Z,8.05
2017-09-22T02:28:53.251Z,6.67
2017-09-22T02:31:21.556Z,5.50
2017-09-22T02:33:50.519Z,6.45
2017-09-22T02:36:18.051Z,7.00
2017-09-22T02:38:46.367Z,6.60
2017-09-22T02:41:14.796Z,7.40
2017-09-22T02:43:42.764Z,6.83
2017-09-22T02:46:10.685Z,8.15
2017-09-22T02:48:39.179Z,8.35
2017-09-22T02:51:06.803Z,8.20
2017-09-22T02:53:35.107Z,6.83
2017-09-22T02:56:02.628Z,7.50
2017-09-22T02:58:30.912Z,6.93
2017-09-22T03:00:59.584Z,5.90
2017-09-22T03:03:28.802Z,6.60
2017-09-22T03:05:57.124Z,9.33
2017-09-22T03:08:24.658Z,7.80
2017-09-22T03:10:52.159Z,9.17
2017-09-22T03:13:19.697Z,8.75
2017-09-22T03:15:48.172Z,9.13
2017-09-22T03:18:15.672Z,9.60
2017-09-22T03:20:43.202Z,6.70
2017-09-22T03:23:10.747Z,8.57
2017-09-22T03:25:38.251Z,8.27
2017-09-22T03:28:07.432Z,8.50
2017-09-22T03:30:36.613Z,8.70
2017-09-22T03:33:04.127Z,8.00
2017-09-22T03:35:32.111Z,7.43
2017-09-22T03:37:59.714Z,8.17
2017-09-22T03:40:28.748Z,9.10
2017-09-22T03:42:56.965Z,7.14
2017-09-22T03:45:24.893Z,9.47
2017-09-22T03:47:52.663Z,10.63
2017-09-22T03:50:20.440Z,10.50
2017-09-22T03:52:47.972Z,9.27
2017-09-22T03:55:16.892Z,12.00
2017-09-22T03:57:44.396Z,12.53
2017-09-22T04:00:11.903Z,10.90
2017-09-22T04:02:40.367Z,9.90
2017-09-22T04:05:07.904Z,9.93
2017-09-22T04:07:35.425Z,8.57
2017-09-22T04:10:02.949Z,9.97
2017-09-22T04:12:30.455Z,9.30
2017-09-22T04:14:58.067Z,11.10
2017-09-22T04:17:25.576Z,11.10
2017-09-22T04:19:53.135Z,11.47
2017-09-22T04:22:20.659Z,10.10
2017-09-22T04:24:49.239Z,12.85
2017-09-22T04:27:16.753Z,12.60
2017-09-22T04:29:44.654Z,9.88
2017-09-22T04:32:12.222Z,11.40
2017-09-22T04:34:39.788Z,11.57
2017-09-22T04:37:07.880Z,12.43
2017-09-22T04:39:35.390Z,12.63
2017-09-22T04:42:03.179Z,11.37
2017-09-22T04:44:30.859Z,12.30
2017-09-22T04:46:58.375Z,13.10
2017-09-22T04:49:25.905Z,13.75
2017-09-22T04:51:54.547Z,15.05
2017-09-22T04:54:22.051Z,14.63
2017-09-22T04:56:49.561Z,13.70
2017-09-22T04:59:17.126Z,12.70
2017-09-22T05:01:44.639Z,12.00
2017-09-22T05:04:12.210Z,11.53
2017-09-22T05:06:44.533Z,12.52
2017-09-22T05:09:12.154Z,12.70
2017-09-22T05:11:39.829Z,12.63
2017-09-22T05:14:07.389Z,15.27
2017-09-22T05:16:35.875Z,15.40
2017-09-22T05:19:03.400Z,12.77
2017-09-22T05:21:35.729Z,13.73
2017-09-22T05:24:03.431Z,15.00
2017-09-22T05:26:31.095Z,12.45
2017-09-22T05:28:58.606Z,11.63
2017-09-22T05:31:26.446Z,12.00
2017-09-22T05:33:54.212Z,10.68
2017-09-22T05:36:21.766Z,12.60
2017-09-22T05:38:49.871Z,12.05
2017-09-22T05:41:17.375Z,12.97
2017-09-22T05:43:44.910Z,14.02
2017-09-22T05:46:13.647Z,13.13
2017-09-22T05:48:41.179Z,11.73
2017-09-22T05:51:10.447Z,10.10
2017-09-22T05:53:41.246Z,12.63
2017-09-22T05:56:09.675Z,10.97
2017-09-22T05:58:37.260Z,11.02
2017-09-22T06:01:04.841Z,10.80
2017-09-22T06:03:32.420Z,11.00
2017-09-22T06:05:59.931Z,10.70
2017-09-22T06:08:27.455Z,10.10
2017-09-22T06:10:54.998Z,11.27
2017-09-22T06:13:23.068Z,11.77
2017-09-22T06:15:50.959Z,11.60
2017-09-22T06:18:18.863Z,12.68
2017-09-22T06:20:46.371Z,11.23
2017-09-22T06:23:13.870Z,13.33
2017-09-22T06:25:43.173Z,11.65
2017-09-22T06:28:12.603Z,12.00
2017-09-22T06:30:40.163Z,11.77
2017-09-22T06:33:07.716Z,11.98
2017-09-22T06:35:35.273Z,11.00
2017-09-22T06:38:02.788Z,11.30
2017-09-22T06:40:33.384Z,11.53
2017-09-22T06:43:00.896Z,12.17
2017-09-22T06:45:29.199Z,11.70
2017-09-22T06:47:56.749Z,11.35
2017-09-22T06:50:24.273Z,11.32
2017-09-22T06:52:51.808Z,11.70
2017-09-22T06:55:19.367Z,12.10
2017-09-22T06:57:46.876Z,10.43
2017-09-22T07:00:15.875Z,12.57
2017-09-22T07:02:43.383Z,12.90
2017-09-22T07:05:10.909Z,11.87
2017-09-22T07:07:38.519Z,12.30
2017-09-22T07:10:07.147Z,12.10
2017-09-22T07:12:35.518Z,12.25
2017-09-22T07:15:03.293Z,13.33
2017-09-22T07:17:30.867Z,12.20
2017-09-22T07:19:58.427Z,12.57
2017-09-22T07:22:25.945Z,10.30
2017-09-22T07:24:53.528Z,12.88
2017-09-22T07:27:21.078Z,10.10
2017-09-22T07:29:49.199Z,10.25
2017-09-22T07:32:16.988Z,13.80
2017-09-22T07:34:44.566Z,12.23
2017-09-22T07:37:13.831Z,11.10
2017-09-22T07:39:41.843Z,13.87
2017-09-22T07:42:09.684Z,10.60
2017-09-22T07:44:38.921Z,11.90
2017-09-22T07:47:06.436Z,12.50
2017-09-22T07:49:37.714Z,11.00
2017-09-22T07:52:05.275Z,13.07
2017-09-22T07:54:34.028Z,11.00
2017-09-22T07:57:01.995Z,11.77
2017-09-22T07:59:29.563Z,12.48
2017-09-22T08:01:58.774Z,11.93
2017-09-22T08:04:27.968Z,13.52
2017-09-22T08:06:55.875Z,13.25
2017-09-22T08:09:23.391Z,15.30
2017-09-22T08:11:52.617Z,13.62
2017-09-22T08:14:20.166Z,13.70
2017-09-22T08:16:48.111Z,14.33
2017-09-22T08:19:15.676Z,16.23
2017-09-22T08:21:43.223Z,14.95
2017-09-22T08:24:11.518Z,17.53
2017-09-22T08:26:39.856Z,13.57
2017-09-22T08:29:07.399Z,13.97
2017-09-22T08:31:34.915Z,12.53
2017-09-22T08:34:02.509Z,14.67
2017-09-22T08:36:30.065Z,13.80
2017-09-22T08:38:57.567Z,12.25
2017-09-22T08:41:26.159Z,13.32
2017-09-22T08:43:54.447Z,15.27
2017-09-22T08:46:21.964Z,15.00
2017-09-22T08:48:49.545Z,13.65
2017-09-22T08:51:17.856Z,13.87
2017-09-22T08:53:45.403Z,12.80
2017-09-22T08:56:14.019Z,14.07
2017-09-22T08:58:41.575Z,13.97
2017-09-22T09:01:10.854Z,13.37
2017-09-22T09:03:38.373Z,13.70
2017-09-22T09:06:05.886Z,15.13
2017-09-22T09:08:35.135Z,18.63
2017-09-22T09:11:02.644Z,15.60
2017-09-22T09:13:30.411Z,15.97
2017-09-22T09:15:57.959Z,15.13
2017-09-22T09:18:25.544Z,15.10
2017-09-22T09:20:53.856Z,15.80
2017-09-22T09:23:21.371Z,15.70
2017-09-22T09:25:52.300Z,15.60
2017-09-22T09:28:19.866Z,16.87
2017-09-22T09:30:47.371Z,17.17
2017-09-22T09:33:15.266Z,17.07
2017-09-22T09:35:43.979Z,19.20
2017-09-22T09:38:11.499Z,16.93
2017-09-22T09:40:44.273Z,17.60
2017-09-22T09:43:12.197Z,15.80
2017-09-22T09:45:39.727Z,17.73
2017-09-22T09:48:08.059Z,17.86
2017-09-22T09:50:36.364Z,16.60
2017-09-22T09:53:04.693Z,16.15
2017-09-22T09:55:33.123Z,16.60
2017-09-22T09:58:00.963Z,15.27
2017-09-22T10:00:28.474Z,16.52
2017-09-22T10:02:55.996Z,17.50
2017-09-22T10:05:24.315Z,17.27
2017-09-22T10:07:51.944Z,17.12
2017-09-22T10:10:19.481Z,16.77
2017-09-22T10:12:47.054Z,17.83
2017-09-22T10:15:14.757Z,18.33
2017-09-22T10:17:42.409Z,17.90
2017-09-22T10:20:09.928Z,20.42
2017-09-22T10:22:38.219Z,20.50
2017-09-22T10:25:06.040Z,18.30
2017-09-22T10:27:36.605Z,21.12
2017-09-22T10:30:04.563Z,22.33
2017-09-22T10:32:32.176Z,21.90
2017-09-22T10:35:00.528Z,21.02
2017-09-22T10:37:28.848Z,22.03
2017-09-22T10:39:56.395Z,22.77
2017-09-22T10:42:24.315Z,22.10
2017-09-22T10:44:52.150Z,20.48
2017-09-22T10:47:19.672Z,19.93
2017-09-22T10:49:47.230Z,17.77
2017-09-22T10:52:15.055Z,20.43
2017-09-22T10:54:42.574Z,18.10
2017-09-22T10:57:10.138Z,18.27
2017-09-22T10:59:38.614Z,19.40
2017-09-22T11:02:06.170Z,19.05
2017-09-22T11:04:33.741Z,17.80
2017-09-22T11:07:01.392Z,17.40
2017-09-22T11:09:29.075Z,17.70
2017-09-22T11:11:56.595Z,17.93
2017-09-22T11:14:24.143Z,18.13
2017-09-22T11:16:52.769Z,17.87
2017-09-22T11:19:20.364Z,18.23
2017-09-22T11:21:48.225Z,17.65
2017-09-22T11:24:15.735Z,18.00
2017-09-22T11:26:43.263Z,15.70
2017-09-22T11:29:11.434Z,17.73
2017-09-22T11:31:39.272Z,16.70
2017-09-22T11:34:06.288Z,16.27
2017-09-22T11:36:33.801Z,14.67
2017-09-22T11:39:02.294Z,15.68
2017-09-22T11:41:29.855Z,14.40
2017-09-22T11:43:58.134Z,14.97
2017-09-22T11:46:25.770Z,14.03
2017-09-22T11:48:53.338Z,14.50
2017-09-22T11:51:20.984Z,13.10
2017-09-22T11:53:48.511Z,13.03
2017-09-22T11:56:16.057Z,11.97
2017-09-22T11:58:44.351Z,12.28
2017-09-22T12:01:11.911Z,10.27
2017-09-22T12:03:39.430Z,10.50
2017-09-22T12:06:07.754Z,10.67
2017-09-22T12:08:35.327Z,10.02
2017-09-22T12:11:04.635Z,10.75
2017-09-22T12:13:35.994Z,8.43
2017-09-22T12:16:04.333Z,8.60
2017-09-22T12:18:32.240Z,8.60
2017-09-22T12:21:00.603Z,7.85
2017-09-22T12:23:29.079Z,8.70
2017-09-22T12:25:56.610Z,9.47
2017-09-22T12:28:25.108Z,8.30
2017-09-22T12:30:53.588Z,7.62
2017-09-22T12:33:21.135Z,6.70
2017-09-22T12:35:48.640Z,7.97
2017-09-22T12:38:16.941Z,7.67
2017-09-22T12:40:44.473Z,8.10
2017-09-22T12:43:13.447Z,7.50
2017-09-22T12:45:40.968Z,6.93
2017-09-22T12:48:08.622Z,5.60
2017-09-22T12:50:36.396Z,6.70
2017-09-22T12:53:03.924Z,6.50
2017-09-22T12:55:32.311Z,6.60
2017-09-22T12:57:59.863Z,6.43
2017-09-22T13:00:27.693Z,6.82
2017-09-22T13:02:55.267Z,6.25
2017-09-22T13:05:23.570Z,6.90
2017-09-22T13:07:51.153Z,5.80
2017-09-22T13:10:18.751Z,6.40
2017-09-22T13:12:46.302Z,6.60
2017-09-22T13:15:13.856Z,4.82
2017-09-22T13:17:41.396Z,5.13
2017-09-22T13:20:10.530Z,4.57
2017-09-22T13:22:38.041Z,3.93
2017-09-22T13:25:05.547Z,3.33
2017-09-22T13:27:34.081Z,3.63
2017-09-22T13:30:04.610Z,2.77
2017-09-22T13:32:32.110Z,2.60
2017-09-22T13:34:59.676Z,3.33
2017-09-22T13:37:28.083Z,2.90
2017-09-22T13:39:55.599Z,2.70
2017-09-22T13:42:23.169Z,2.20
2017-09-22T13:44:50.678Z,2.90
2017-09-22T13:47:19.117Z,3.07
2017-09-22T13:49:47.056Z,3.97
2017-09-22T13:52:14.566Z,3.03
2017-09-22T13:54:43.823Z,2.83
2017-09-22T13:57:11.399Z,3.40
2017-09-22T13:59:38.936Z,2.90
2017-09-22T14:02:06.545Z,3.03
2017-09-22T14:04:34.844Z,3.00
2017-09-22T14:07:03.197Z,3.10
2017-09-22T14:09:30.756Z,2.30
2017-09-22T14:11:59.031Z,2.90
2017-09-22T14:14:26.667Z,3.40
2017-09-22T14:16:54.527Z,2.57
2017-09-22T14:19:22.080Z,3.53
2017-09-22T14:21:49.711Z,3.22
2017-09-22T14:24:17.261Z,3.55
2017-09-22T14:26:45.079Z,3.50
2017-09-22T14:29:12.608Z,3.97
2017-09-22T14:31:43.668Z,3.58
2017-09-22T14:34:11.409Z,4.25
2017-09-22T14:36:39.679Z,4.32
2017-09-22T14:39:07.212Z,5.00
2017-09-22T14:41:34.762Z,4.70
2017-09-22T14:44:03.080Z,6.00
2017-09-22T14:46:30.883Z,5.70
2017-09-22T14:48:58.438Z,7.97
2017-09-22T14:51:25.927Z,3.10
2017-09-22T14:53:53.883Z,4.27
2017-09-22T14:56:22.305Z,3.65
2017-09-22T14:58:49.859Z,3.20
2017-09-22T15:01:17.369Z,4.65
2017-09-22T15:03:44.939Z,4.70
2017-09-22T15:06:13.211Z,4.47
2017-09-22T15:08:41.736Z,4.20
2017-09-22T15:11:09.404Z,3.95
2017-09-22T15:13:37.166Z,6.40
2017-09-22T15:16:09.016Z,3.83
2017-09-22T15:18:36.569Z,4.80
2017-09-22T15:21:04.770Z,3.28
2017-09-22T15:23:32.424Z,4.03
2017-09-22T15:25:59.979Z,5.40
2017-09-22T15:28:27.487Z,5.63
2017-09-22T15:30:55.804Z,5.97
2017-09-22T15:33:23.365Z,4.37
2017-09-22T15:35:50.924Z,4.67
2017-09-22T15:38:18.750Z,3.63
2017-09-22T15:40:47.065Z,2.77
2017-09-22T15:43:15.021Z,3.53
2017-09-22T15:45:42.606Z,2.85
2017-09-22T15:48:10.162Z,3.63
2017-09-22T15:50:37.717Z,4.10
2017-09-22T15:53:05.309Z,4.40
2017-09-22T15:55:32.995Z,3.57
2017-09-22T15:58:00.875Z,4.67
2017-09-22T16:00:28.435Z,4.32
2017-09-22T16:02:56.746Z,3.65
2017-09-22T16:05:24.259Z,4.20
2017-09-22T16:07:52.575Z,3.72
2017-09-22T16:10:21.564Z,3.62
2017-09-22T16:12:49.068Z,3.33
2017-09-22T16:15:16.645Z,4.00
2017-09-22T16:17:45.931Z,4.35
2017-09-22T16:20:14.256Z,4.28
2017-09-22T16:22:42.574Z,4.35
2017-09-22T16:25:10.883Z,4.00
2017-09-22T16:27:38.677Z,9.47
2017-09-22T16:30:06.208Z,4.62
2017-09-22T16:32:35.407Z,4.80
2017-09-22T16:35:10.226Z,3.45
2017-09-22T16:37:38.032Z,3.90
2017-09-22T16:40:05.590Z,4.60
2017-09-22T16:42:33.095Z,3.57
2017-09-22T16:45:01.064Z,5.80
2017-09-22T16:47:28.608Z,4.60
2017-09-22T16:49:56.140Z,4.03
2017-09-22T16:52:25.285Z,4.00
2017-09-22T16:54:52.803Z,4.33
2017-09-22T16:57:20.363Z,5.13
2017-09-22T16:59:48.811Z,4.70
2017-09-22T17:02:16.341Z,5.47
2017-09-22T17:04:43.921Z,5.00
2017-09-22T17:07:12.195Z,3.93
2017-09-22T17:09:40.484Z,5.30
2017-09-22T17:12:08.626Z,6.43
2017-09-22T17:14:37.097Z,6.40
2017-09-22T17:17:04.648Z,6.10
2017-09-22T17:19:33.083Z,5.95
2017-09-22T17:22:00.702Z,5.67
2017-09-22T17:24:28.201Z,5.00
2017-09-22T17:26:55.790Z,5.03
2017-09-22T17:29:23.651Z,6.50
2017-09-22T17:31:51.164Z,6.45
2017-09-22T17:34:23.805Z,5.10
2017-09-22T17:36:51.758Z,5.40
2017-09-22T17:39:19.265Z,4.80
2017-09-22T17:41:48.199Z,5.05
2017-09-22T17:44:15.714Z,6.50
2017-09-22T17:46:44.005Z,4.17
2017-09-22T17:49:15.083Z,5.10
2017-09-22T17:51:42.658Z,4.97
2017-09-22T17:54:10.711Z,4.70
2017-09-22T17:56:38.248Z,5.25
2017-09-22T17:59:06.707Z,5.90
2017-09-22T18:01:34.210Z,5.40
2017-09-22T18:04:05.446Z,6.20
2017-09-22T18:06:32.952Z,7.63
2017-09-22T18:09:00.476Z,9.10
2017-09-22T18:11:28.031Z,6.53
2017-09-22T18:13:56.488Z,6.65
2017-09-22T18:16:24.003Z,7.83
2017-09-22T18:18:51.863Z,9.03
2017-09-22T18:21:19.870Z,9.83
2017-09-22T18:23:48.147Z,8.15
2017-09-22T18:26:16.224Z,7.28
2017-09-22T18:28:44.052Z,6.67
2017-09-22T18:31:12.670Z,6.80
2017-09-22T18:33:40.607Z,7.80
2017-09-22T18:36:08.171Z,8.07
2017-09-22T18:38:35.764Z,7.10
2017-09-22T18:41:04.038Z,7.05
2017-09-22T18:43:31.587Z,6.43
2017-09-22T18:45:59.771Z,7.80
2017-09-22T18:48:27.307Z,8.13
2017-09-22T18:50:54.866Z,7.78
2017-09-22T18:53:23.183Z,7.97
2017-09-22T18:55:50.758Z,8.02
2017-09-22T18:58:18.815Z,9.40
2017-09-22T19:00:46.694Z,7.93
2017-09-22T19:03:14.206Z,8.38
2017-09-22T19:05:41.835Z,5.80
2017-09-22T19:08:09.358Z,7.57
2017-09-22T19:10:38.476Z,6.72
2017-09-22T19:13:06.032Z,8.60
2017-09-22T19:15:33.652Z,11.97
2017-09-22T19:18:01.187Z,12.23
2017-09-22T19:20:28.933Z,10.07
2017-09-22T19:22:57.239Z,10.23
2017-09-22T19:25:25.555Z,7.37
2017-09-22T19:27:53.119Z,10.30
2017-09-22T19:30:21.601Z,9.02
2017-09-22T19:32:49.683Z,9.40
2017-09-22T19:35:17.242Z,7.37
2017-09-22T19:37:44.786Z,6.50
2017-09-22T19:40:12.286Z,7.60
2017-09-22T19:42:39.823Z,8.40
2017-09-22T19:45:07.339Z,13.17
2017-09-22T19:47:35.680Z,11.30
2017-09-22T19:50:03.361Z,9.53
2017-09-22T19:52:32.057Z,9.13
2017-09-22T19:55:00.075Z,9.73
2017-09-22T19:57:27.874Z,12.15
2017-09-22T19:59:55.399Z,9.53
2017-09-22T20:02:23.036Z,7.95
2017-09-22T20:04:50.855Z,8.93
2017-09-22T20:07:26.703Z,9.27
2017-09-22T20:09:54.220Z,8.90
2017-09-22T20:12:21.758Z,9.77
2017-09-22T20:14:50.226Z,9.27
2017-09-22T20:17:18.642Z,9.40
2017-09-22T20:19:46.191Z,9.60
2017-09-22T20:22:13.750Z,10.40
2017-09-22T20:24:41.300Z,8.53
2017-09-22T20:27:09.607Z,8.80
2017-09-22T20:29:37.123Z,8.93
2017-09-22T20:32:05.432Z,8.20
2017-09-22T20:34:32.986Z,7.87
2017-09-22T20:37:01.138Z,8.00
2017-09-22T20:39:29.453Z,9.73
2017-09-22T20:41:56.969Z,8.65
2017-09-22T20:44:24.555Z,10.07
2017-09-22T20:46:54.611Z,8.00
2017-09-22T20:49:22.259Z,8.85
2017-09-22T20:51:49.830Z,9.40
2017-09-22T20:54:18.314Z,8.38
2017-09-22T20:56:47.395Z,8.70
2017-09-22T20:59:14.956Z,9.40
2017-09-22T21:01:43.808Z,8.85
2017-09-22T21:04:11.343Z,9.63
2017-09-22T21:06:39.698Z,8.73
2017-09-22T21:09:07.495Z,8.30
2017-09-22T21:11:35.844Z,8.50
2017-09-22T21:14:03.551Z,9.47
2017-09-22T21:16:31.071Z,9.17
2017-09-22T21:18:59.026Z,9.25
2017-09-22T21:21:27.162Z,8.57
2017-09-22T21:23:54.680Z,10.50
2017-09-22T21:26:23.015Z,8.97
2017-09-22T21:28:50.614Z,9.10
2017-09-22T21:31:18.889Z,8.90
2017-09-22T21:33:46.555Z,9.60
2017-09-22T21:36:14.102Z,9.77
2017-09-22T21:38:41.659Z,9.73
2017-09-22T21:41:09.311Z,9.30
2017-09-22T21:43:36.855Z,8.87
2017-09-22T21:46:04.906Z,14.17
2017-09-22T21:48:32.460Z,10.37
2017-09-22T21:51:00.304Z,8.97
2017-09-22T21:53:28.575Z,8.33
2017-09-22T21:55:56.455Z,9.10
2017-09-22T21:58:25.479Z,9.27
2017-09-22T22:00:53.144Z,9.60
2017-09-22T22:03:26.436Z,8.73
2017-09-22T22:05:54.555Z,7.55
2017-09-22T22:08:26.042Z,8.10
2017-09-22T22:10:53.553Z,8.93
2017-09-22T22:13:21.151Z,9.50
2017-09-22T22:15:48.724Z,8.40
2017-09-22T22:18:16.476Z,7.57
2017-09-22T22:20:45.343Z,8.33
2017-09-22T22:23:13.191Z,9.00
2017-09-22T22:25:40.727Z,8.20
2017-09-22T22:28:08.243Z,9.13
2017-09-22T22:30:36.522Z,9.30
2017-09-22T22:33:05.543Z,11.00
2017-09-22T22:35:33.096Z,9.25
2017-09-22T22:38:00.611Z,9.02
2017-09-22T22:40:28.655Z,9.78
2017-09-22T22:42:56.868Z,8.10
2017-09-22T22:45:24.457Z,9.00
2017-09-22T22:47:52.111Z,9.30
2017-09-22T22:50:19.613Z,8.57
2017-09-22T22:52:47.125Z,8.38
2017-09-22T22:55:18.527Z,9.30
2017-09-22T22:57:46.856Z,7.90
2017-09-22T23:00:14.439Z,9.60
2017-09-22T23:02:43.631Z,7.57
2017-09-22T23:05:11.385Z,7.47
2017-09-22T23:07:38.891Z,8.23
2017-09-22T23:10:06.399Z,7.15
2017-09-22T23:12:34.851Z,7.62
2017-09-22T23:15:03.315Z,7.47
2017-09-22T23:17:30.864Z,8.20
2017-09-22T23:19:58.390Z,7.80
2017-09-22T23:22:26.809Z,9.44
2017-09-22T23:24:58.106Z,8.10
2017-09-22T23:27:25.617Z,9.00
2017-09-22T23:29:53.193Z,8.47
2017-09-22T23:32:21.067Z,8.80
2017-09-22T23:34:48.600Z,8.93
2017-09-22T23:37:17.175Z,9.20
2017-09-22T23:39:48.088Z,9.83
2017-09-22T23:42:15.643Z,8.10
2017-09-22T23:44:43.326Z,9.47
2017-09-22T23:47:11.376Z,10.32
2017-09-22T23:49:38.932Z,9.00
2017-09-22T23:52:07.207Z,9.77
2017-09-22T23:54:34.949Z,10.30
2017-09-22T23:57:02.448Z,9.00
2017-09-22T23:59:30.855Z,9.38
